createdAt,value
2022-12-18T00:02:20.895Z,27.64
2022-12-18T00:04:47.322Z,29.15
2022-12-18T00:07:13.719Z,30.80
2022-12-18T00:09:40.675Z,28.68
2022-12-18T00:14:42.275Z,26.42
2022-12-18T00:17:08.698Z,27.56
2022-12-18T00:19:36.895Z,27.65
2022-12-18T00:22:03.333Z,27.90
2022-12-18T00:24:29.748Z,32.22
2022-12-18T00:26:56.155Z,27.11
2022-12-18T00:29:22.574Z,27.63
2022-12-18T00:31:49.094Z,27.34
2022-12-18T00:34:15.523Z,27.64
2022-12-18T00:36:41.949Z,27.85
2022-12-18T00:39:08.430Z,26.12
2022-12-18T00:41:34.848Z,27.10
2022-12-18T00:44:01.265Z,27.87
2022-12-18T00:46:27.663Z,28.88
2022-12-18T00:48:54.053Z,32.77
2022-12-18T00:51:20.487Z,30.38
2022-12-18T00:53:46.911Z,31.25
2022-12-18T00:56:13.319Z,31.23
2022-12-18T00:58:39.746Z,30.30
2022-12-18T01:01:06.162Z,31.88
2022-12-18T01:03:32.633Z,30.70
2022-12-18T01:05:59.170Z,31.02
2022-12-18T01:08:25.576Z,31.19
2022-12-18T01:10:52.009Z,31.06
2022-12-18T01:13:18.502Z,30.30
2022-12-18T01:15:44.958Z,30.43
2022-12-18T01:18:11.371Z,29.90
2022-12-18T01:20:37.791Z,29.64
2022-12-18T01:23:04.196Z,29.30
2022-12-18T01:25:30.643Z,27.11
2022-12-18T01:27:57.102Z,26.92
2022-12-18T01:30:23.526Z,27.38
2022-12-18T01:32:49.952Z,32.65
2022-12-18T01:35:16.389Z,33.15
2022-12-18T01:37:42.836Z,33.43
2022-12-18T01:40:09.259Z,33.41
2022-12-18T01:42:35.695Z,33.28
2022-12-18T01:45:02.143Z,33.28
2022-12-18T01:47:28.570Z,31.79
2022-12-18T01:49:54.983Z,31.71
2022-12-18T01:52:21.383Z,29.70
2022-12-18T01:54:47.823Z,29.45
2022-12-18T01:57:14.244Z,29.47
2022-12-18T01:59:40.662Z,30.77
2022-12-18T02:02:07.799Z,32.34
2022-12-18T02:04:34.350Z,31.44
2022-12-18T02:07:00.794Z,31.37
2022-12-18T02:09:27.329Z,31.63
2022-12-18T02:11:53.757Z,30.86
2022-12-18T02:14:20.199Z,30.75
2022-12-18T02:16:46.772Z,31.18
2022-12-18T02:19:13.263Z,31.53
2022-12-18T02:21:39.693Z,30.76
2022-12-18T02:24:06.131Z,30.59
2022-12-18T02:26:32.598Z,33.34
2022-12-18T02:28:59.023Z,28.56
2022-12-18T02:31:25.440Z,24.84
2022-12-18T02:33:51.887Z,24.66
2022-12-18T02:36:18.289Z,26.90
2022-12-18T02:38:44.723Z,27.72
2022-12-18T02:41:11.135Z,28.09
2022-12-18T02:43:37.825Z,28.97
2022-12-18T02:46:04.675Z,27.96
2022-12-18T02:48:31.142Z,28.93
2022-12-18T02:50:57.574Z,31.17
2022-12-18T02:53:24.015Z,33.48
2022-12-18T02:55:50.442Z,26.38
2022-12-18T02:58:16.896Z,23.22
2022-12-18T03:00:43.311Z,18.70
2022-12-18T03:03:09.826Z,16.93
2022-12-18T03:05:36.325Z,19.29
2022-12-18T03:08:02.814Z,20.48
2022-12-18T03:10:29.224Z,20.31
2022-12-18T03:12:55.667Z,19.23
2022-12-18T03:15:22.085Z,17.76
2022-12-18T03:17:48.509Z,16.60
2022-12-18T03:20:14.932Z,17.16
2022-12-18T03:22:41.365Z,17.85
2022-12-18T03:25:07.806Z,17.56
2022-12-18T03:27:34.289Z,18.91
2022-12-18T03:30:00.711Z,19.76
2022-12-18T03:32:27.147Z,19.05
2022-12-18T03:34:53.553Z,19.88
2022-12-18T03:37:19.949Z,19.88
2022-12-18T03:39:46.397Z,18.46
2022-12-18T03:42:12.843Z,18.52
2022-12-18T03:44:39.311Z,19.52
2022-12-18T03:47:05.749Z,19.52
2022-12-18T03:49:32.179Z,19.47
2022-12-18T03:51:58.612Z,20.05
2022-12-18T03:54:25.041Z,20.45
2022-12-18T03:56:51.472Z,18.91
2022-12-18T03:59:17.984Z,19.73
2022-12-18T04:01:44.457Z,20.28
2022-12-18T04:04:11.110Z,21.21
2022-12-18T04:06:37.567Z,21.58
2022-12-18T04:09:04.034Z,21.05
2022-12-18T04:11:30.453Z,20.23
2022-12-18T04:13:56.898Z,19.70
2022-12-18T04:16:23.461Z,19.30
2022-12-18T04:18:49.898Z,20.21
2022-12-18T04:21:17.329Z,19.19
2022-12-18T04:23:43.892Z,19.58
2022-12-18T04:26:10.322Z,21.99
2022-12-18T04:28:36.741Z,22.21
2022-12-18T04:31:03.174Z,19.73
2022-12-18T04:33:29.644Z,17.96
2022-12-18T04:35:56.076Z,16.97
2022-12-18T04:38:22.500Z,18.06
2022-12-18T04:40:48.944Z,19.92
2022-12-18T04:43:15.424Z,22.98
2022-12-18T04:45:41.888Z,22.65
2022-12-18T04:48:08.316Z,19.15
2022-12-18T04:50:34.787Z,20.78
2022-12-18T04:53:01.224Z,19.61
2022-12-18T04:55:27.651Z,20.44
2022-12-18T04:57:54.116Z,22.21
2022-12-18T05:00:20.557Z,22.05
2022-12-18T05:02:47.056Z,22.46
2022-12-18T05:05:13.577Z,22.82
2022-12-18T05:07:40.021Z,24.00
2022-12-18T05:10:06.477Z,25.37
2022-12-18T05:12:32.904Z,26.41
2022-12-18T05:14:59.334Z,26.75
2022-12-18T05:17:25.745Z,27.42
2022-12-18T05:19:52.197Z,27.55
2022-12-18T05:22:18.638Z,28.56
2022-12-18T05:24:45.245Z,28.39
2022-12-18T05:27:11.675Z,28.50
2022-12-18T05:29:38.206Z,30.03
2022-12-18T05:32:04.621Z,32.63
2022-12-18T05:34:31.065Z,29.84
2022-12-18T05:36:57.526Z,28.13
2022-12-18T05:39:23.954Z,26.32
2022-12-18T05:41:50.707Z,24.57
2022-12-18T05:44:17.183Z,25.60
2022-12-18T05:46:43.733Z,27.18
2022-12-18T05:49:10.234Z,26.86
2022-12-18T05:51:36.902Z,27.66
2022-12-18T05:54:03.306Z,28.61
2022-12-18T05:56:29.794Z,25.10
2022-12-18T05:58:56.216Z,24.23
2022-12-18T06:01:23.892Z,25.62
2022-12-18T06:03:50.506Z,26.28
2022-12-18T06:06:17.066Z,26.74
2022-12-18T06:08:46.447Z,28.48
2022-12-18T06:11:13.446Z,68.25
2022-12-18T06:13:40.173Z,36.70
2022-12-18T06:16:07.020Z,29.95
2022-12-18T06:18:33.484Z,31.58
2022-12-18T06:20:59.904Z,29.86
2022-12-18T06:23:26.354Z,27.11
2022-12-18T06:25:52.789Z,28.15
2022-12-18T06:28:19.235Z,28.99
2022-12-18T06:30:45.772Z,27.55
2022-12-18T06:33:12.213Z,26.21
2022-12-18T06:35:38.650Z,25.94
2022-12-18T06:38:05.107Z,28.36
2022-12-18T06:40:31.522Z,29.38
2022-12-18T06:42:57.985Z,28.69
2022-12-18T06:45:24.448Z,29.71
2022-12-18T06:47:50.939Z,29.36
2022-12-18T06:50:17.396Z,28.89
2022-12-18T06:52:43.829Z,29.55
2022-12-18T06:55:10.354Z,29.61
2022-12-18T06:57:36.796Z,29.87
2022-12-18T07:00:06.964Z,29.61
2022-12-18T07:02:33.507Z,29.83
2022-12-18T07:05:00.196Z,29.31
2022-12-18T07:07:26.696Z,29.04
2022-12-18T07:09:53.144Z,28.87
2022-12-18T07:12:19.818Z,28.92
2022-12-18T07:14:46.379Z,28.06
2022-12-18T07:17:12.857Z,27.25
2022-12-18T07:19:39.334Z,28.67
2022-12-18T07:22:05.786Z,29.15
2022-12-18T07:24:32.970Z,29.16
2022-12-18T07:26:59.395Z,29.04
2022-12-18T07:29:25.797Z,29.74
2022-12-18T07:31:52.295Z,29.83
2022-12-18T07:34:18.765Z,29.50
2022-12-18T07:36:45.193Z,30.07
2022-12-18T07:39:11.609Z,31.41
2022-12-18T07:41:40.264Z,30.59
2022-12-18T07:44:10.182Z,31.27
2022-12-18T07:46:36.607Z,31.82
2022-12-18T07:49:03.052Z,30.82
2022-12-18T07:51:29.490Z,28.05
2022-12-18T07:53:55.916Z,28.60
2022-12-18T07:56:27.552Z,33.83
2022-12-18T07:58:54.880Z,30.06
2022-12-18T08:01:21.513Z,29.69
2022-12-18T08:03:48.099Z,28.52
2022-12-18T08:06:14.694Z,26.82
2022-12-18T08:08:41.106Z,26.10
2022-12-18T08:11:07.623Z,25.83
2022-12-18T08:13:34.061Z,26.90
2022-12-18T08:16:00.466Z,28.39
2022-12-18T08:18:26.949Z,29.28
2022-12-18T08:20:53.393Z,30.04
2022-12-18T08:23:19.824Z,29.76
2022-12-18T08:25:46.272Z,30.26
2022-12-18T08:28:12.682Z,28.91
2022-12-18T08:30:39.189Z,29.21
2022-12-18T08:33:05.646Z,29.84
2022-12-18T08:35:36.440Z,29.54
2022-12-18T08:38:05.263Z,28.04
2022-12-18T08:40:31.690Z,27.43
2022-12-18T08:42:58.115Z,25.77
2022-12-18T08:45:24.532Z,25.71
2022-12-18T08:47:50.975Z,26.77
2022-12-18T08:50:17.396Z,26.61
2022-12-18T08:52:44.976Z,27.03
2022-12-18T08:55:12.651Z,27.95
2022-12-18T08:57:39.110Z,27.97
2022-12-18T09:00:06.554Z,27.38
2022-12-18T09:02:33.122Z,26.86
2022-12-18T09:04:59.613Z,27.60
2022-12-18T09:07:26.032Z,26.77
2022-12-18T09:09:52.461Z,26.64
2022-12-18T09:12:18.928Z,27.68
2022-12-18T09:14:45.389Z,26.89
2022-12-18T09:17:11.892Z,27.67
2022-12-18T09:19:38.341Z,28.57
2022-12-18T09:22:04.764Z,28.02
2022-12-18T09:24:31.164Z,29.13
2022-12-18T09:26:58.212Z,28.23
2022-12-18T09:29:24.691Z,27.69
2022-12-18T09:31:51.107Z,27.83
2022-12-18T09:34:17.538Z,27.66
2022-12-18T09:36:43.953Z,28.78
2022-12-18T09:39:10.399Z,29.91
2022-12-18T09:41:36.820Z,29.22
2022-12-18T09:44:03.225Z,29.45
2022-12-18T09:46:29.689Z,30.10
2022-12-18T09:48:56.167Z,30.15
2022-12-18T09:51:22.581Z,29.37
2022-12-18T09:53:49.069Z,28.86
2022-12-18T09:56:15.500Z,29.99
2022-12-18T09:58:42.211Z,30.15
2022-12-18T10:01:08.939Z,29.43
2022-12-18T10:03:35.366Z,29.80
2022-12-18T10:06:01.830Z,29.31
2022-12-18T10:08:28.258Z,29.90
2022-12-18T10:10:54.791Z,31.03
2022-12-18T10:13:21.249Z,29.59
2022-12-18T10:15:50.308Z,30.27
2022-12-18T10:18:21.662Z,30.07
2022-12-18T10:20:48.563Z,29.10
2022-12-18T10:23:14.986Z,28.83
2022-12-18T10:25:41.447Z,28.39
2022-12-18T10:28:07.870Z,28.98
2022-12-18T10:30:34.559Z,28.71
2022-12-18T10:33:02.561Z,30.37
2022-12-18T10:35:32.917Z,49.44
2022-12-18T10:38:22.396Z,54.89
2022-12-18T10:44:06.471Z,32.65
2022-12-18T10:46:39.282Z,30.71
2022-12-18T10:49:08.231Z,29.43
2022-12-18T10:51:35.122Z,29.20
2022-12-18T10:54:06.809Z,29.09
2022-12-18T10:56:34.473Z,29.85
2022-12-18T10:59:03.078Z,29.48
2022-12-18T11:01:33.976Z,29.15
2022-12-18T11:04:04.552Z,28.62
2022-12-18T11:06:32.306Z,28.90
2022-12-18T11:09:09.362Z,28.92
2022-12-18T11:11:40.727Z,32.83
2022-12-18T11:14:07.663Z,29.54
2022-12-18T11:19:30.780Z,29.49
2022-12-18T11:21:58.233Z,29.66
2022-12-18T11:24:27.003Z,28.75
2022-12-18T11:26:59.321Z,29.96
2022-12-18T11:29:27.128Z,29.73
2022-12-18T11:34:39.314Z,29.27
2022-12-18T11:37:06.997Z,29.28
2022-12-18T11:39:34.533Z,32.79
2022-12-18T11:42:02.126Z,29.72
2022-12-18T11:44:28.881Z,30.95
2022-12-18T11:46:56.508Z,29.47
2022-12-18T11:49:24.043Z,30.21
2022-12-18T11:51:51.690Z,30.34
2022-12-18T11:54:20.392Z,29.97
2022-12-18T11:56:50.045Z,30.40
2022-12-18T11:59:22.177Z,31.26
2022-12-18T12:01:49.198Z,31.93
2022-12-18T12:04:17.816Z,31.34
2022-12-18T12:06:47.082Z,30.32
2022-12-18T12:09:14.958Z,29.34
2022-12-18T12:11:42.588Z,30.62
2022-12-18T12:14:10.181Z,31.95
2022-12-18T12:16:37.139Z,31.02
2022-12-18T12:19:04.378Z,30.99
2022-12-18T12:21:31.978Z,31.05
2022-12-18T12:23:59.812Z,30.90
2022-12-18T12:26:27.353Z,31.68
2022-12-18T12:28:55.146Z,30.20
2022-12-18T12:31:24.157Z,30.93
2022-12-18T12:33:51.348Z,30.48
2022-12-18T12:36:18.138Z,30.11
2022-12-18T12:38:50.017Z,29.75
2022-12-18T12:41:19.256Z,30.22
2022-12-18T12:43:50.561Z,28.88
2022-12-18T12:46:19.564Z,28.47
2022-12-18T12:48:48.092Z,27.56
2022-12-18T12:51:15.691Z,27.23
2022-12-18T12:53:44.674Z,27.25
2022-12-18T12:56:12.891Z,26.41
2022-12-18T12:58:39.510Z,27.57
2022-12-18T13:01:08.165Z,27.64
2022-12-18T13:03:35.687Z,28.48
2022-12-18T13:06:02.292Z,29.35
2022-12-18T13:08:31.111Z,30.97
2022-12-18T13:11:00.600Z,27.61
2022-12-18T13:13:29.152Z,27.09
2022-12-18T13:15:56.706Z,27.51
2022-12-18T13:18:24.294Z,28.60
2022-12-18T13:20:55.180Z,28.92
2022-12-18T13:23:25.281Z,28.53
2022-12-18T13:25:53.083Z,27.60
2022-12-18T13:28:20.693Z,27.60
2022-12-18T13:30:48.316Z,28.50
2022-12-18T13:33:15.888Z,27.93
2022-12-18T13:35:44.531Z,28.09
2022-12-18T13:38:11.557Z,28.73
2022-12-18T13:40:38.136Z,27.77
2022-12-18T13:43:04.592Z,27.11
2022-12-18T13:45:31.839Z,27.54
2022-12-18T13:47:59.452Z,27.19
2022-12-18T13:50:30.975Z,27.88
2022-12-18T13:53:02.691Z,31.31
2022-12-18T13:55:30.286Z,31.36
2022-12-18T13:57:57.866Z,28.79
2022-12-18T14:00:25.476Z,27.40
2022-12-18T14:02:53.218Z,29.09
2022-12-18T14:05:20.686Z,29.44
2022-12-18T14:07:51.884Z,29.52
2022-12-18T14:10:42.214Z,29.80
2022-12-18T14:13:06.560Z,30.14
2022-12-18T14:15:35.181Z,30.41
2022-12-18T14:18:02.767Z,29.18
2022-12-18T14:20:29.348Z,30.05
2022-12-18T14:22:57.934Z,29.93
2022-12-18T14:25:25.517Z,30.10
2022-12-18T14:27:53.113Z,29.52
2022-12-18T14:30:20.715Z,29.76
2022-12-18T14:32:48.297Z,29.80
2022-12-18T14:35:14.897Z,29.04
2022-12-18T14:37:41.489Z,28.48
2022-12-18T14:40:11.520Z,29.04
2022-12-18T14:42:38.717Z,28.69
2022-12-18T14:45:13.855Z,28.72
2022-12-18T14:47:41.980Z,29.55
2022-12-18T14:50:09.499Z,30.96
2022-12-18T14:52:36.077Z,31.17
2022-12-18T14:55:02.664Z,31.23
2022-12-18T14:57:29.263Z,32.18
2022-12-18T14:59:55.872Z,31.49
2022-12-18T15:02:23.647Z,31.93
2022-12-18T15:04:51.045Z,32.40
2022-12-18T15:07:17.606Z,30.57
2022-12-18T15:09:46.231Z,30.34
2022-12-18T15:12:12.815Z,31.35
2022-12-18T15:14:40.463Z,32.17
2022-12-18T15:17:07.980Z,31.74
2022-12-18T15:19:35.672Z,31.63
2022-12-18T15:22:06.317Z,30.80
2022-12-18T15:24:33.891Z,31.66
2022-12-18T15:27:01.507Z,31.47
2022-12-18T15:29:28.128Z,31.07
2022-12-18T15:31:55.669Z,31.79
2022-12-18T15:34:22.275Z,33.76
2022-12-18T15:36:49.839Z,33.45
2022-12-18T15:39:17.438Z,32.80
2022-12-18T15:41:45.025Z,53.19
2022-12-18T15:44:12.640Z,40.30
2022-12-18T15:46:40.283Z,33.70
2022-12-18T15:49:08.803Z,33.28
2022-12-18T15:51:37.477Z,42.39
2022-12-18T15:54:05.008Z,48.48
2022-12-18T15:56:32.614Z,38.89
2022-12-18T15:59:00.199Z,33.47
2022-12-18T16:01:27.948Z,31.86
2022-12-18T16:03:56.775Z,31.03
2022-12-18T16:06:24.034Z,30.58
2022-12-18T16:08:51.553Z,31.08
2022-12-18T16:11:18.151Z,31.04
2022-12-18T16:13:47.017Z,31.63
2022-12-18T16:16:13.575Z,31.72
2022-12-18T16:18:40.054Z,30.84
2022-12-18T16:21:07.501Z,32.94
2022-12-18T16:23:34.098Z,35.17
2022-12-18T16:26:00.725Z,46.16
2022-12-18T16:28:28.274Z,45.58
2022-12-18T16:30:55.940Z,38.36
2022-12-18T16:33:23.464Z,40.70
2022-12-18T16:35:50.057Z,45.26
2022-12-18T16:38:16.649Z,46.04
2022-12-18T16:40:44.255Z,34.39
2022-12-18T16:43:10.829Z,31.05
2022-12-18T16:45:37.445Z,30.75
2022-12-18T16:48:04.040Z,31.28
2022-12-18T16:50:31.651Z,31.94
2022-12-18T16:52:59.214Z,32.57
2022-12-18T16:55:26.179Z,31.48
2022-12-18T16:57:54.406Z,30.13
2022-12-18T17:00:21.019Z,31.18
2022-12-18T17:02:47.808Z,30.55
2022-12-18T17:05:15.266Z,29.89
2022-12-18T17:07:41.857Z,29.00
2022-12-18T17:10:09.431Z,29.60
2022-12-18T17:12:37.021Z,30.54
2022-12-18T17:15:04.627Z,31.23
2022-12-18T17:17:31.234Z,30.91
2022-12-18T17:19:58.794Z,32.52
2022-12-18T17:22:26.379Z,32.48
2022-12-18T17:24:52.979Z,32.02
2022-12-18T17:27:20.600Z,31.02
2022-12-18T17:29:48.799Z,32.33
2022-12-18T17:32:15.641Z,31.12
2022-12-18T17:34:42.055Z,30.08
2022-12-18T17:37:08.926Z,30.25
2022-12-18T17:39:35.548Z,30.60
2022-12-18T17:42:03.120Z,30.88
2022-12-18T17:44:31.709Z,30.40
2022-12-18T17:46:58.326Z,31.89
2022-12-18T17:49:25.931Z,32.51
2022-12-18T17:51:53.588Z,33.74
2022-12-18T17:54:21.113Z,33.79
2022-12-18T17:56:49.709Z,35.00
2022-12-18T17:59:17.305Z,33.96
2022-12-18T18:01:45.626Z,34.13
2022-12-18T18:04:13.654Z,34.30
2022-12-18T18:06:41.075Z,34.13
2022-12-18T18:09:11.171Z,34.19
2022-12-18T18:11:44.278Z,32.02
2022-12-18T18:14:11.890Z,33.93
2022-12-18T18:16:40.562Z,35.21
2022-12-18T18:19:08.091Z,44.18
2022-12-18T18:21:34.707Z,40.37
2022-12-18T18:24:02.301Z,37.39
2022-12-18T18:26:28.876Z,40.29
2022-12-18T18:28:57.506Z,44.03
2022-12-18T18:31:25.165Z,42.48
2022-12-18T18:33:52.671Z,41.22
2022-12-18T18:36:19.287Z,39.75
2022-12-18T18:38:48.523Z,37.57
2022-12-18T18:41:15.467Z,63.43
2022-12-18T18:43:43.379Z,39.96
2022-12-18T18:46:10.705Z,36.32
2022-12-18T18:48:38.238Z,37.14
2022-12-18T18:51:06.865Z,36.63
2022-12-18T18:53:34.680Z,36.04
2022-12-18T18:56:37.391Z,36.65
2022-12-18T18:58:48.470Z,37.43
2022-12-18T19:01:15.442Z,45.07
2022-12-18T19:03:43.315Z,48.65
2022-12-18T19:06:10.500Z,38.69
2022-12-18T19:08:38.323Z,36.16
2022-12-18T19:11:05.697Z,35.31
2022-12-18T19:13:32.292Z,36.62
2022-12-18T19:15:58.912Z,39.20
2022-12-18T19:18:26.493Z,38.85
2022-12-18T19:20:54.102Z,37.61
2022-12-18T19:23:21.673Z,36.81
2022-12-18T19:25:50.781Z,36.34
2022-12-18T19:28:26.896Z,37.41
2022-12-18T19:30:58.975Z,36.84
2022-12-18T19:33:42.236Z,35.82
2022-12-18T19:36:09.758Z,36.00
2022-12-18T19:38:37.476Z,38.37
2022-12-18T19:41:04.930Z,38.34
2022-12-18T19:43:32.526Z,40.31
2022-12-18T19:45:59.221Z,39.74
2022-12-18T19:48:26.693Z,38.62
2022-12-18T19:50:53.612Z,38.24
2022-12-18T19:53:20.917Z,38.25
2022-12-18T19:55:48.507Z,37.46
2022-12-18T19:58:17.087Z,36.85
2022-12-18T20:00:43.990Z,36.16
2022-12-18T20:03:22.367Z,37.78
2022-12-18T20:05:53.945Z,37.35
2022-12-18T20:08:22.547Z,35.25
2022-12-18T20:10:50.128Z,36.26
2022-12-18T20:13:17.721Z,37.75
2022-12-18T20:15:46.361Z,38.36
2022-12-18T20:18:12.937Z,37.33
2022-12-18T20:20:39.548Z,36.48
2022-12-18T20:23:07.147Z,35.83
2022-12-18T20:25:34.763Z,36.48
2022-12-18T20:28:01.328Z,37.10
2022-12-18T20:30:27.928Z,36.42
2022-12-18T20:32:55.508Z,37.56
2022-12-18T20:35:23.110Z,34.98
2022-12-18T20:37:50.915Z,34.81
2022-12-18T20:40:19.327Z,34.01
2022-12-18T20:42:46.930Z,33.79
2022-12-18T20:45:13.525Z,35.53
2022-12-18T20:47:40.117Z,35.66
2022-12-18T20:50:06.721Z,34.59
2022-12-18T20:52:33.300Z,34.57
2022-12-18T20:55:01.880Z,35.13
2022-12-18T20:57:28.494Z,35.43
2022-12-18T20:59:56.078Z,36.29
2022-12-18T21:02:23.133Z,37.34
2022-12-18T21:04:50.275Z,37.75
2022-12-18T21:07:16.874Z,37.43
2022-12-18T21:09:43.450Z,37.82
2022-12-18T21:12:10.398Z,37.69
2022-12-18T21:14:41.635Z,36.62
2022-12-18T21:17:08.299Z,36.42
2022-12-18T21:19:35.836Z,37.58
2022-12-18T21:22:03.422Z,40.66
2022-12-18T21:24:32.950Z,39.85
2022-12-18T21:27:00.657Z,39.30
2022-12-18T21:29:28.247Z,38.70
2022-12-18T21:31:55.042Z,38.40
2022-12-18T21:34:28.974Z,37.25
2022-12-18T21:36:56.074Z,37.22
2022-12-18T21:39:22.632Z,37.96
2022-12-18T21:41:50.240Z,39.44
2022-12-18T21:44:19.868Z,56.87
2022-12-18T21:46:51.350Z,63.94
2022-12-18T21:49:22.088Z,51.12
2022-12-18T21:51:48.659Z,49.19
2022-12-18T21:54:15.263Z,46.46
2022-12-18T21:56:42.844Z,43.17
2022-12-18T21:59:09.434Z,37.39
2022-12-18T22:01:37.049Z,37.22
2022-12-18T22:04:04.673Z,37.47
2022-12-18T22:06:32.210Z,38.41
2022-12-18T22:08:58.806Z,37.90
2022-12-18T22:11:25.393Z,36.37
2022-12-18T22:13:52.994Z,36.66
2022-12-18T22:16:19.573Z,36.93
2022-12-18T22:18:46.073Z,38.93
2022-12-18T22:21:12.771Z,40.44
2022-12-18T22:23:39.360Z,38.78
2022-12-18T22:26:06.933Z,36.65
2022-12-18T22:28:33.531Z,34.84
2022-12-18T22:31:00.039Z,35.07
2022-12-18T22:33:27.742Z,37.33
2022-12-18T22:35:55.317Z,35.94
2022-12-18T22:38:21.915Z,34.32
2022-12-18T22:40:48.482Z,35.39
2022-12-18T22:43:16.074Z,35.67
2022-12-18T22:45:42.660Z,34.93
2022-12-18T22:48:10.264Z,36.35
2022-12-18T22:50:37.841Z,36.79
2022-12-18T22:53:04.435Z,36.67
2022-12-18T22:55:32.033Z,37.56
2022-12-18T22:57:59.609Z,36.96
2022-12-18T23:00:26.275Z,37.29
2022-12-18T23:02:59.996Z,38.61
2022-12-18T23:05:28.434Z,37.89
2022-12-18T23:07:56.009Z,37.86
2022-12-18T23:10:22.590Z,40.67
2022-12-18T23:12:49.200Z,41.58
2022-12-18T23:15:16.789Z,39.70
2022-12-18T23:17:47.870Z,38.29
2022-12-18T23:20:15.016Z,38.39
2022-12-18T23:22:41.579Z,38.45
2022-12-18T23:25:08.180Z,37.57
2022-12-18T23:27:35.779Z,39.02
2022-12-18T23:30:02.374Z,36.72
2022-12-18T23:32:28.960Z,37.84
2022-12-18T23:34:56.549Z,38.88
2022-12-18T23:37:57.082Z,38.13
2022-12-18T23:40:10.819Z,37.42
2022-12-18T23:42:37.407Z,36.95
2022-12-18T23:45:07.474Z,38.17
2022-12-18T23:47:44.642Z,37.01
2022-12-18T23:50:14.245Z,37.22
2022-12-18T23:52:41.834Z,37.80
2022-12-18T23:55:09.456Z,38.15
2022-12-18T23:57:36.061Z,38.60
